sensor_id;sensor_type;location;lat;lon;timestamp;temperature;humidity
4356;DHT22;2191;51.482;7.408;2022-08-25T00:00:20;28.90;92.00
4356;DHT22;2191;51.482;7.408;2022-08-25T00:02:49;28.90;92.30
4356;DHT22;2191;51.482;7.408;2022-08-25T00:05:29;28.90;92.30
4356;DHT22;2191;51.482;7.408;2022-08-25T00:07:59;28.80;92.20
4356;DHT22;2191;51.482;7.408;2022-08-25T00:10:28;28.80;92.00
4356;DHT22;2191;51.482;7.408;2022-08-25T00:12:57;28.80;92.00
4356;DHT22;2191;51.482;7.408;2022-08-25T00:15:25;28.70;92.40
4356;DHT22;2191;51.482;7.408;2022-08-25T00:17:55;28.60;92.60
4356;DHT22;2191;51.482;7.408;2022-08-25T00:20:24;28.50;92.90
4356;DHT22;2191;51.482;7.408;2022-08-25T00:22:52;28.50;92.40
4356;DHT22;2191;51.482;7.408;2022-08-25T00:25:22;28.50;92.30
4356;DHT22;2191;51.482;7.408;2022-08-25T00:27:50;28.40;92.30
4356;DHT22;2191;51.482;7.408;2022-08-25T00:30:18;28.40;92.50
4356;DHT22;2191;51.482;7.408;2022-08-25T00:32:47;28.40;92.40
4356;DHT22;2191;51.482;7.408;2022-08-25T00:35:25;28.30;92.50
4356;DHT22;2191;51.482;7.408;2022-08-25T00:37:53;28.30;92.40
4356;DHT22;2191;51.482;7.408;2022-08-25T00:40:23;28.30;92.20
4356;DHT22;2191;51.482;7.408;2022-08-25T00:42:52;28.30;92.00
4356;DHT22;2191;51.482;7.408;2022-08-25T00:45:22;28.30;91.90
4356;DHT22;2191;51.482;7.408;2022-08-25T00:47:50;28.30;92.10
4356;DHT22;2191;51.482;7.408;2022-08-25T00:50:19;28.20;91.90
4356;DHT22;2191;51.482;7.408;2022-08-25T00:52:55;28.30;92.20
4356;DHT22;2191;51.482;7.408;2022-08-25T00:55:28;28.30;92.20
4356;DHT22;2191;51.482;7.408;2022-08-25T00:58:03;28.30;92.50
4356;DHT22;2191;51.482;7.408;2022-08-25T01:00:37;28.30;92.60
4356;DHT22;2191;51.482;7.408;2022-08-25T01:03:06;28.30;93.10
4356;DHT22;2191;51.482;7.408;2022-08-25T01:05:34;28.40;93.10
4356;DHT22;2191;51.482;7.408;2022-08-25T01:08:06;28.40;92.80
4356;DHT22;2191;51.482;7.408;2022-08-25T01:10:43;28.40;92.20
4356;DHT22;2191;51.482;7.408;2022-08-25T01:13:14;28.30;92.10
4356;DHT22;2191;51.482;7.408;2022-08-25T01:15:43;28.30;92.00
4356;DHT22;2191;51.482;7.408;2022-08-25T01:18:13;28.30;92.00
4356;DHT22;2191;51.482;7.408;2022-08-25T01:20:41;28.20;91.90
4356;DHT22;2191;51.482;7.408;2022-08-25T01:23:10;28.20;92.30
4356;DHT22;2191;51.482;7.408;2022-08-25T01:25:47;28.20;92.50
4356;DHT22;2191;51.482;7.408;2022-08-25T01:28:19;28.20;92.70
4356;DHT22;2191;51.482;7.408;2022-08-25T01:30:47;28.10;92.50
4356;DHT22;2191;51.482;7.408;2022-08-25T01:33:15;28.10;92.60
4356;DHT22;2191;51.482;7.408;2022-08-25T01:35:44;28.10;92.70
4356;DHT22;2191;51.482;7.408;2022-08-25T01:38:14;28.20;92.70
4356;DHT22;2191;51.482;7.408;2022-08-25T01:40:43;28.20;92.80
4356;DHT22;2191;51.482;7.408;2022-08-25T01:43:16;28.20;92.90
4356;DHT22;2191;51.482;7.408;2022-08-25T01:45:48;28.20;93.20
4356;DHT22;2191;51.482;7.408;2022-08-25T01:48:17;28.20;92.60
4356;DHT22;2191;51.482;7.408;2022-08-25T01:50:45;28.20;92.80
4356;DHT22;2191;51.482;7.408;2022-08-25T01:53:18;28.20;93.00
4356;DHT22;2191;51.482;7.408;2022-08-25T01:55:49;28.20;93.30
4356;DHT22;2191;51.482;7.408;2022-08-25T01:58:25;28.20;92.80
4356;DHT22;2191;51.482;7.408;2022-08-25T02:00:56;28.20;93.00
4356;DHT22;2191;51.482;7.408;2022-08-25T02:03:25;28.20;93.10
4356;DHT22;2191;51.482;7.408;2022-08-25T02:05:54;28.20;93.70
4356;DHT22;2191;51.482;7.408;2022-08-25T02:08:24;28.10;93.20
4356;DHT22;2191;51.482;7.408;2022-08-25T02:10:53;28.10;93.30
4356;DHT22;2191;51.482;7.408;2022-08-25T02:13:22;28.10;93.10
4356;DHT22;2191;51.482;7.408;2022-08-25T02:15:58;28.10;93.20
4356;DHT22;2191;51.482;7.408;2022-08-25T02:18:27;28.00;93.30
4356;DHT22;2191;51.482;7.408;2022-08-25T02:20:55;28.00;93.70
4356;DHT22;2191;51.482;7.408;2022-08-25T02:23:35;28.00;93.90
4356;DHT22;2191;51.482;7.408;2022-08-25T02:26:03;27.90;94.10
4356;DHT22;2191;51.482;7.408;2022-08-25T02:28:31;27.90;94.50
4356;DHT22;2191;51.482;7.408;2022-08-25T02:30:59;27.90;94.50
4356;DHT22;2191;51.482;7.408;2022-08-25T02:33:27;27.90;94.50
4356;DHT22;2191;51.482;7.408;2022-08-25T02:35:57;27.90;94.50
4356;DHT22;2191;51.482;7.408;2022-08-25T02:38:26;27.90;94.60
4356;DHT22;2191;51.482;7.408;2022-08-25T02:40:55;27.90;95.00
4356;DHT22;2191;51.482;7.408;2022-08-25T02:43:24;27.90;94.60
4356;DHT22;2191;51.482;7.408;2022-08-25T02:45:53;27.80;95.00
4356;DHT22;2191;51.482;7.408;2022-08-25T02:48:22;27.80;94.60
4356;DHT22;2191;51.482;7.408;2022-08-25T02:50:51;27.80;94.50
4356;DHT22;2191;51.482;7.408;2022-08-25T02:53:20;27.80;94.30
4356;DHT22;2191;51.482;7.408;2022-08-25T02:55:49;27.80;94.20
4356;DHT22;2191;51.482;7.408;2022-08-25T02:58:17;27.90;94.20
4356;DHT22;2191;51.482;7.408;2022-08-25T03:00:46;27.80;94.30
4356;DHT22;2191;51.482;7.408;2022-08-25T03:03:15;27.80;94.30
4356;DHT22;2191;51.482;7.408;2022-08-25T03:05:43;27.70;94.70
4356;DHT22;2191;51.482;7.408;2022-08-25T03:08:11;27.60;95.20
4356;DHT22;2191;51.482;7.408;2022-08-25T03:10:39;27.40;95.50
4356;DHT22;2191;51.482;7.408;2022-08-25T03:13:09;27.30;95.70
4356;DHT22;2191;51.482;7.408;2022-08-25T03:15:37;27.30;96.10
4356;DHT22;2191;51.482;7.408;2022-08-25T03:18:05;27.20;95.60
4356;DHT22;2191;51.482;7.408;2022-08-25T03:20:34;27.20;95.70
4356;DHT22;2191;51.482;7.408;2022-08-25T03:23:03;27.20;95.90
4356;DHT22;2191;51.482;7.408;2022-08-25T03:25:32;27.20;95.60
4356;DHT22;2191;51.482;7.408;2022-08-25T03:28:22;27.10;95.60
4356;DHT22;2191;51.482;7.408;2022-08-25T03:30:56;27.00;95.60
4356;DHT22;2191;51.482;7.408;2022-08-25T03:33:26;27.00;95.90
4356;DHT22;2191;51.482;7.408;2022-08-25T03:35:55;27.00;96.10
4356;DHT22;2191;51.482;7.408;2022-08-25T03:38:23;27.00;95.90
4356;DHT22;2191;51.482;7.408;2022-08-25T03:40:52;26.90;95.90
4356;DHT22;2191;51.482;7.408;2022-08-25T03:43:21;26.90;96.00
4356;DHT22;2191;51.482;7.408;2022-08-25T03:45:53;27.00;96.10
4356;DHT22;2191;51.482;7.408;2022-08-25T03:48:21;27.10;96.00
4356;DHT22;2191;51.482;7.408;2022-08-25T03:50:50;27.00;96.20
4356;DHT22;2191;51.482;7.408;2022-08-25T03:53:22;27.10;96.10
4356;DHT22;2191;51.482;7.408;2022-08-25T03:55:50;27.20;96.20
4356;DHT22;2191;51.482;7.408;2022-08-25T03:58:18;27.10;96.20
4356;DHT22;2191;51.482;7.408;2022-08-25T04:00:47;27.10;96.10
4356;DHT22;2191;51.482;7.408;2022-08-25T04:03:16;27.20;96.20
4356;DHT22;2191;51.482;7.408;2022-08-25T04:05:44;27.10;96.30
4356;DHT22;2191;51.482;7.408;2022-08-25T04:08:12;27.00;96.20
4356;DHT22;2191;51.482;7.408;2022-08-25T04:10:40;27.00;96.60
4356;DHT22;2191;51.482;7.408;2022-08-25T04:13:08;27.00;96.60
4356;DHT22;2191;51.482;7.408;2022-08-25T04:15:41;27.10;96.70
4356;DHT22;2191;51.482;7.408;2022-08-25T04:18:11;27.00;97.00
4356;DHT22;2191;51.482;7.408;2022-08-25T04:20:39;27.10;96.90
4356;DHT22;2191;51.482;7.408;2022-08-25T04:23:12;27.10;97.00
4356;DHT22;2191;51.482;7.408;2022-08-25T04:25:40;27.10;97.30
4356;DHT22;2191;51.482;7.408;2022-08-25T04:28:11;27.10;97.40
4356;DHT22;2191;51.482;7.408;2022-08-25T04:30:41;27.10;97.30
4356;DHT22;2191;51.482;7.408;2022-08-25T04:33:10;27.10;97.30
4356;DHT22;2191;51.482;7.408;2022-08-25T04:35:39;27.10;97.50
4356;DHT22;2191;51.482;7.408;2022-08-25T04:38:07;27.00;97.70
4356;DHT22;2191;51.482;7.408;2022-08-25T04:40:35;27.00;97.60
4356;DHT22;2191;51.482;7.408;2022-08-25T04:43:03;27.00;97.50
4356;DHT22;2191;51.482;7.408;2022-08-25T04:45:34;27.00;97.70
4356;DHT22;2191;51.482;7.408;2022-08-25T04:48:05;27.00;98.20
4356;DHT22;2191;51.482;7.408;2022-08-25T04:50:38;27.00;98.00
4356;DHT22;2191;51.482;7.408;2022-08-25T04:53:06;26.90;98.10
4356;DHT22;2191;51.482;7.408;2022-08-25T04:55:39;26.90;98.10
4356;DHT22;2191;51.482;7.408;2022-08-25T04:58:08;26.90;98.20
4356;DHT22;2191;51.482;7.408;2022-08-25T05:00:42;26.80;98.30
4356;DHT22;2191;51.482;7.408;2022-08-25T05:03:12;26.90;98.50
4356;DHT22;2191;51.482;7.408;2022-08-25T05:05:42;26.90;98.90
4356;DHT22;2191;51.482;7.408;2022-08-25T05:08:10;26.90;99.10
4356;DHT22;2191;51.482;7.408;2022-08-25T05:10:39;26.90;98.90
4356;DHT22;2191;51.482;7.408;2022-08-25T05:13:09;26.90;98.90
4356;DHT22;2191;51.482;7.408;2022-08-25T05:15:37;26.90;98.70
4356;DHT22;2191;51.482;7.408;2022-08-25T05:18:18;26.90;98.70
4356;DHT22;2191;51.482;7.408;2022-08-25T05:20:50;26.90;98.90
4356;DHT22;2191;51.482;7.408;2022-08-25T05:23:19;26.90;99.00
4356;DHT22;2191;51.482;7.408;2022-08-25T05:25:47;26.90;99.20
4356;DHT22;2191;51.482;7.408;2022-08-25T05:28:17;26.90;99.30
4356;DHT22;2191;51.482;7.408;2022-08-25T05:30:46;26.90;99.30
4356;DHT22;2191;51.482;7.408;2022-08-25T05:33:16;26.90;99.30
4356;DHT22;2191;51.482;7.408;2022-08-25T05:35:44;26.90;99.70
4356;DHT22;2191;51.482;7.408;2022-08-25T05:38:13;26.90;99.70
4356;DHT22;2191;51.482;7.408;2022-08-25T05:40:42;26.90;99.80
4356;DHT22;2191;51.482;7.408;2022-08-25T05:43:10;26.90;99.90
4356;DHT22;2191;51.482;7.408;2022-08-25T05:45:40;26.80;99.90
4356;DHT22;2191;51.482;7.408;2022-08-25T05:48:08;26.80;99.90
4356;DHT22;2191;51.482;7.408;2022-08-25T05:50:36;26.80;99.90
4356;DHT22;2191;51.482;7.408;2022-08-25T05:53:04;26.90;99.90
4356;DHT22;2191;51.482;7.408;2022-08-25T05:55:33;27.00;99.90
4356;DHT22;2191;51.482;7.408;2022-08-25T05:58:01;27.00;99.90
4356;DHT22;2191;51.482;7.408;2022-08-25T06:00:29;27.00;99.90
4356;DHT22;2191;51.482;7.408;2022-08-25T06:02:57;27.00;99.90
4356;DHT22;2191;51.482;7.408;2022-08-25T06:05:24;27.10;99.90
4356;DHT22;2191;51.482;7.408;2022-08-25T06:07:52;27.00;99.90
4356;DHT22;2191;51.482;7.408;2022-08-25T06:10:20;27.10;99.90
4356;DHT22;2191;51.482;7.408;2022-08-25T06:12:49;27.10;99.90
4356;DHT22;2191;51.482;7.408;2022-08-25T06:15:20;27.00;99.90
4356;DHT22;2191;51.482;7.408;2022-08-25T06:17:49;27.10;99.90
4356;DHT22;2191;51.482;7.408;2022-08-25T06:20:19;27.10;99.90
4356;DHT22;2191;51.482;7.408;2022-08-25T06:22:52;27.10;99.90
4356;DHT22;2191;51.482;7.408;2022-08-25T06:25:22;27.20;99.90
4356;DHT22;2191;51.482;7.408;2022-08-25T06:27:52;27.10;99.90
4356;DHT22;2191;51.482;7.408;2022-08-25T06:30:22;27.10;99.90
4356;DHT22;2191;51.482;7.408;2022-08-25T06:32:55;27.20;99.90
4356;DHT22;2191;51.482;7.408;2022-08-25T06:35:23;27.20;99.90
4356;DHT22;2191;51.482;7.408;2022-08-25T06:37:52;27.30;99.90
4356;DHT22;2191;51.482;7.408;2022-08-25T06:40:20;27.40;99.90
4356;DHT22;2191;51.482;7.408;2022-08-25T06:42:48;27.40;99.90
4356;DHT22;2191;51.482;7.408;2022-08-25T06:45:18;27.40;99.90
4356;DHT22;2191;51.482;7.408;2022-08-25T06:47:47;27.40;99.90
4356;DHT22;2191;51.482;7.408;2022-08-25T06:50:15;27.50;99.90
4356;DHT22;2191;51.482;7.408;2022-08-25T06:52:43;27.50;99.90
4356;DHT22;2191;51.482;7.408;2022-08-25T06:55:11;27.50;99.90
4356;DHT22;2191;51.482;7.408;2022-08-25T06:57:39;27.50;99.90
4356;DHT22;2191;51.482;7.408;2022-08-25T07:00:08;27.50;99.90
4356;DHT22;2191;51.482;7.408;2022-08-25T07:02:39;27.60;99.90
4356;DHT22;2191;51.482;7.408;2022-08-25T07:05:08;27.60;99.90
4356;DHT22;2191;51.482;7.408;2022-08-25T07:07:52;27.60;99.90
4356;DHT22;2191;51.482;7.408;2022-08-25T07:10:20;27.60;99.90
4356;DHT22;2191;51.482;7.408;2022-08-25T07:12:49;27.70;99.90
4356;DHT22;2191;51.482;7.408;2022-08-25T07:15:17;27.70;99.90
4356;DHT22;2191;51.482;7.408;2022-08-25T07:17:48;27.70;99.90
4356;DHT22;2191;51.482;7.408;2022-08-25T07:20:17;27.70;99.90
4356;DHT22;2191;51.482;7.408;2022-08-25T07:22:45;27.70;99.90
4356;DHT22;2191;51.482;7.408;2022-08-25T07:25:13;27.70;99.90
4356;DHT22;2191;51.482;7.408;2022-08-25T07:27:44;27.60;99.90
4356;DHT22;2191;51.482;7.408;2022-08-25T07:30:12;27.60;99.90
4356;DHT22;2191;51.482;7.408;2022-08-25T07:32:40;27.70;99.90
4356;DHT22;2191;51.482;7.408;2022-08-25T07:35:11;27.80;99.90
4356;DHT22;2191;51.482;7.408;2022-08-25T07:37:46;27.80;99.90
4356;DHT22;2191;51.482;7.408;2022-08-25T07:40:17;27.90;99.90
4356;DHT22;2191;51.482;7.408;2022-08-25T07:42:48;27.90;99.90
4356;DHT22;2191;51.482;7.408;2022-08-25T07:45:17;28.00;99.90
4356;DHT22;2191;51.482;7.408;2022-08-25T07:47:47;28.10;99.90
4356;DHT22;2191;51.482;7.408;2022-08-25T07:50:19;28.00;99.90
4356;DHT22;2191;51.482;7.408;2022-08-25T07:52:48;27.90;99.90
4356;DHT22;2191;51.482;7.408;2022-08-25T07:55:32;28.00;99.90
4356;DHT22;2191;51.482;7.408;2022-08-25T07:58:03;28.00;99.90
4356;DHT22;2191;51.482;7.408;2022-08-25T08:00:32;28.00;99.90
4356;DHT22;2191;51.482;7.408;2022-08-25T08:03:03;28.00;99.90
4356;DHT22;2191;51.482;7.408;2022-08-25T08:05:39;28.00;99.90
4356;DHT22;2191;51.482;7.408;2022-08-25T08:08:08;28.00;99.90
4356;DHT22;2191;51.482;7.408;2022-08-25T08:10:38;28.10;99.90
4356;DHT22;2191;51.482;7.408;2022-08-25T08:13:26;28.20;99.90
4356;DHT22;2191;51.482;7.408;2022-08-25T08:15:54;28.20;99.90
4356;DHT22;2191;51.482;7.408;2022-08-25T08:18:22;28.30;99.90
4356;DHT22;2191;51.482;7.408;2022-08-25T08:20:51;28.30;99.90
4356;DHT22;2191;51.482;7.408;2022-08-25T08:23:20;28.40;99.90
4356;DHT22;2191;51.482;7.408;2022-08-25T08:25:53;28.50;99.90
4356;DHT22;2191;51.482;7.408;2022-08-25T08:28:23;28.60;99.90
4356;DHT22;2191;51.482;7.408;2022-08-25T08:30:53;28.60;99.90
4356;DHT22;2191;51.482;7.408;2022-08-25T08:33:23;28.70;99.90
4356;DHT22;2191;51.482;7.408;2022-08-25T08:35:58;28.80;99.90
4356;DHT22;2191;51.482;7.408;2022-08-25T08:38:32;28.80;99.90
4356;DHT22;2191;51.482;7.408;2022-08-25T08:41:11;28.80;99.90
4356;DHT22;2191;51.482;7.408;2022-08-25T08:44:25;28.90;99.90
4356;DHT22;2191;51.482;7.408;2022-08-25T08:47:02;28.90;99.90
4356;DHT22;2191;51.482;7.408;2022-08-25T08:49:39;28.90;99.90
4356;DHT22;2191;51.482;7.408;2022-08-25T08:52:15;29.00;99.90
4356;DHT22;2191;51.482;7.408;2022-08-25T08:54:50;29.10;99.90
4356;DHT22;2191;51.482;7.408;2022-08-25T08:57:24;29.20;99.90
4356;DHT22;2191;51.482;7.408;2022-08-25T08:59:59;29.40;99.90
4356;DHT22;2191;51.482;7.408;2022-08-25T09:02:30;29.30;99.90
4356;DHT22;2191;51.482;7.408;2022-08-25T09:05:19;29.30;99.90
4356;DHT22;2191;51.482;7.408;2022-08-25T09:07:54;29.30;99.90
4356;DHT22;2191;51.482;7.408;2022-08-25T09:10:27;29.40;99.90
4356;DHT22;2191;51.482;7.408;2022-08-25T09:13:04;29.40;99.90
4356;DHT22;2191;51.482;7.408;2022-08-25T09:15:44;29.50;99.90
4356;DHT22;2191;51.482;7.408;2022-08-25T09:18:42;29.60;99.90
4356;DHT22;2191;51.482;7.408;2022-08-25T09:21:26;29.50;99.90
4356;DHT22;2191;51.482;7.408;2022-08-25T09:24:17;29.70;99.90
4356;DHT22;2191;51.482;7.408;2022-08-25T09:26:52;29.70;99.90
4356;DHT22;2191;51.482;7.408;2022-08-25T09:29:29;29.80;99.90
4356;DHT22;2191;51.482;7.408;2022-08-25T09:32:05;29.80;99.90
4356;DHT22;2191;51.482;7.408;2022-08-25T09:34:36;29.90;99.90
4356;DHT22;2191;51.482;7.408;2022-08-25T09:37:04;29.90;99.90
4356;DHT22;2191;51.482;7.408;2022-08-25T09:39:35;30.00;99.90
4356;DHT22;2191;51.482;7.408;2022-08-25T09:42:03;30.00;99.90
4356;DHT22;2191;51.482;7.408;2022-08-25T09:44:37;30.10;99.90
4356;DHT22;2191;51.482;7.408;2022-08-25T09:47:14;30.10;99.90
4356;DHT22;2191;51.482;7.408;2022-08-25T09:49:48;30.10;99.90
4356;DHT22;2191;51.482;7.408;2022-08-25T09:52:22;30.20;99.90
4356;DHT22;2191;51.482;7.408;2022-08-25T09:54:55;30.30;99.90
4356;DHT22;2191;51.482;7.408;2022-08-25T09:57:30;30.40;99.90
4356;DHT22;2191;51.482;7.408;2022-08-25T10:00:14;30.40;99.90
4356;DHT22;2191;51.482;7.408;2022-08-25T10:02:44;30.50;99.90
4356;DHT22;2191;51.482;7.408;2022-08-25T10:05:33;30.50;99.90
4356;DHT22;2191;51.482;7.408;2022-08-25T10:08:09;30.60;99.90
4356;DHT22;2191;51.482;7.408;2022-08-25T10:10:44;30.70;99.90
4356;DHT22;2191;51.482;7.408;2022-08-25T10:13:16;30.70;99.90
4356;DHT22;2191;51.482;7.408;2022-08-25T10:16:03;30.80;99.90
4356;DHT22;2191;51.482;7.408;2022-08-25T10:19:00;30.80;99.90
4356;DHT22;2191;51.482;7.408;2022-08-25T10:21:28;30.80;99.90
4356;DHT22;2191;51.482;7.408;2022-08-25T10:23:56;30.90;99.90
4356;DHT22;2191;51.482;7.408;2022-08-25T10:26:33;30.90;99.90
4356;DHT22;2191;51.482;7.408;2022-08-25T10:29:11;30.90;99.90
4356;DHT22;2191;51.482;7.408;2022-08-25T10:31:49;31.00;99.90
4356;DHT22;2191;51.482;7.408;2022-08-25T10:34:31;31.10;99.80
4356;DHT22;2191;51.482;7.408;2022-08-25T10:37:09;31.10;99.00
4356;DHT22;2191;51.482;7.408;2022-08-25T10:39:55;31.10;98.20
4356;DHT22;2191;51.482;7.408;2022-08-25T10:42:33;31.10;98.30
4356;DHT22;2191;51.482;7.408;2022-08-25T10:45:15;31.20;98.60
4356;DHT22;2191;51.482;7.408;2022-08-25T10:51:03;31.50;98.10
4356;DHT22;2191;51.482;7.408;2022-08-25T10:53:43;31.60;97.50
4356;DHT22;2191;51.482;7.408;2022-08-25T10:56:17;31.70;97.90
4356;DHT22;2191;51.482;7.408;2022-08-25T11:04:50;31.90;97.00
4356;DHT22;2191;51.482;7.408;2022-08-25T11:07:24;31.90;97.70
4356;DHT22;2191;51.482;7.408;2022-08-25T11:09:58;32.00;97.40
4356;DHT22;2191;51.482;7.408;2022-08-25T11:12:32;32.00;97.40
4356;DHT22;2191;51.482;7.408;2022-08-25T11:15:07;32.00;96.70
4356;DHT22;2191;51.482;7.408;2022-08-25T11:17:41;32.10;97.20
4356;DHT22;2191;51.482;7.408;2022-08-25T11:20:19;32.20;96.10
4356;DHT22;2191;51.482;7.408;2022-08-25T11:23:06;32.30;95.20
4356;DHT22;2191;51.482;7.408;2022-08-25T11:25:41;32.30;94.10
4356;DHT22;2191;51.482;7.408;2022-08-25T11:28:13;32.30;93.60
4356;DHT22;2191;51.482;7.408;2022-08-25T11:30:44;32.40;93.90
4356;DHT22;2191;51.482;7.408;2022-08-25T11:33:13;32.30;93.90
4356;DHT22;2191;51.482;7.408;2022-08-25T11:35:48;32.40;94.40
4356;DHT22;2191;51.482;7.408;2022-08-25T11:38:27;32.50;94.50
4356;DHT22;2191;51.482;7.408;2022-08-25T11:41:07;32.50;94.40
4356;DHT22;2191;51.482;7.408;2022-08-25T11:44:05;32.60;94.60
4356;DHT22;2191;51.482;7.408;2022-08-25T11:47:04;32.60;94.80
4356;DHT22;2191;51.482;7.408;2022-08-25T11:49:51;32.70;94.60
4356;DHT22;2191;51.482;7.408;2022-08-25T11:52:44;32.70;95.00
4356;DHT22;2191;51.482;7.408;2022-08-25T11:55:16;32.80;94.60
4356;DHT22;2191;51.482;7.408;2022-08-25T11:57:50;32.90;94.20
4356;DHT22;2191;51.482;7.408;2022-08-25T12:00:37;32.90;93.80
4356;DHT22;2191;51.482;7.408;2022-08-25T12:03:46;33.00;93.80
4356;DHT22;2191;51.482;7.408;2022-08-25T12:06:20;33.00;93.40
4356;DHT22;2191;51.482;7.408;2022-08-25T12:09:18;33.00;93.10
4356;DHT22;2191;51.482;7.408;2022-08-25T12:11:54;33.10;92.80
4356;DHT22;2191;51.482;7.408;2022-08-25T12:14:41;33.10;92.50
4356;DHT22;2191;51.482;7.408;2022-08-25T12:17:23;33.20;92.20
4356;DHT22;2191;51.482;7.408;2022-08-25T12:19:56;33.20;90.80
4356;DHT22;2191;51.482;7.408;2022-08-25T12:22:57;33.20;90.80
4356;DHT22;2191;51.482;7.408;2022-08-25T12:26:02;33.30;91.60
4356;DHT22;2191;51.482;7.408;2022-08-25T12:28:50;33.30;91.20
4356;DHT22;2191;51.482;7.408;2022-08-25T12:31:49;33.40;90.70
4356;DHT22;2191;51.482;7.408;2022-08-25T12:34:43;33.40;91.10
4356;DHT22;2191;51.482;7.408;2022-08-25T12:37:16;33.50;91.40
4356;DHT22;2191;51.482;7.408;2022-08-25T12:39:56;33.60;90.30
4356;DHT22;2191;51.482;7.408;2022-08-25T12:42:30;33.80;90.90
4356;DHT22;2191;51.482;7.408;2022-08-25T12:51:03;33.80;90.10
4356;DHT22;2191;51.482;7.408;2022-08-25T12:53:38;33.80;90.30
4356;DHT22;2191;51.482;7.408;2022-08-25T12:56:15;33.80;89.50
4356;DHT22;2191;51.482;7.408;2022-08-25T12:58:48;33.90;89.90
4356;DHT22;2191;51.482;7.408;2022-08-25T13:01:35;34.00;88.80
4356;DHT22;2191;51.482;7.408;2022-08-25T13:07:26;34.10;88.10
4356;DHT22;2191;51.482;7.408;2022-08-25T13:10:23;34.30;88.30
4356;DHT22;2191;51.482;7.408;2022-08-25T13:13:05;34.30;87.50
4356;DHT22;2191;51.482;7.408;2022-08-25T13:15:42;34.50;87.70
4356;DHT22;2191;51.482;7.408;2022-08-25T13:18:24;34.50;86.80
4356;DHT22;2191;51.482;7.408;2022-08-25T13:20:59;34.60;86.90
4356;DHT22;2191;51.482;7.408;2022-08-25T13:23:29;34.60;84.20
4356;DHT22;2191;51.482;7.408;2022-08-25T13:25:59;34.70;83.70
4356;DHT22;2191;51.482;7.408;2022-08-25T13:28:29;34.70;82.80
4356;DHT22;2191;51.482;7.408;2022-08-25T13:31:04;34.70;83.30
4356;DHT22;2191;51.482;7.408;2022-08-25T13:33:36;34.80;83.30
4356;DHT22;2191;51.482;7.408;2022-08-25T13:36:15;34.70;81.90
4356;DHT22;2191;51.482;7.408;2022-08-25T13:39:12;34.60;83.00
4356;DHT22;2191;51.482;7.408;2022-08-25T13:41:54;34.70;82.60
4356;DHT22;2191;51.482;7.408;2022-08-25T13:44:33;34.80;83.00
4356;DHT22;2191;51.482;7.408;2022-08-25T13:47:15;34.80;82.00
4356;DHT22;2191;51.482;7.408;2022-08-25T13:49:46;34.80;82.10
4356;DHT22;2191;51.482;7.408;2022-08-25T13:52:18;34.90;82.30
4356;DHT22;2191;51.482;7.408;2022-08-25T13:54:58;35.00;81.20
4356;DHT22;2191;51.482;7.408;2022-08-25T13:57:32;35.10;80.90
4356;DHT22;2191;51.482;7.408;2022-08-25T14:00:07;35.20;79.10
4356;DHT22;2191;51.482;7.408;2022-08-25T14:02:41;35.20;77.30
4356;DHT22;2191;51.482;7.408;2022-08-25T14:05:27;35.20;76.60
4356;DHT22;2191;51.482;7.408;2022-08-25T14:07:56;35.30;78.80
4356;DHT22;2191;51.482;7.408;2022-08-25T14:10:45;35.30;76.70
4356;DHT22;2191;51.482;7.408;2022-08-25T14:13:27;35.40;77.70
4356;DHT22;2191;51.482;7.408;2022-08-25T14:16:06;35.40;78.90
4356;DHT22;2191;51.482;7.408;2022-08-25T14:18:34;35.50;77.20
4356;DHT22;2191;51.482;7.408;2022-08-25T14:21:08;35.40;77.50
4356;DHT22;2191;51.482;7.408;2022-08-25T14:23:37;35.60;78.50
4356;DHT22;2191;51.482;7.408;2022-08-25T14:26:05;35.50;78.40
4356;DHT22;2191;51.482;7.408;2022-08-25T14:28:35;35.40;79.50
4356;DHT22;2191;51.482;7.408;2022-08-25T14:31:08;35.40;78.60
4356;DHT22;2191;51.482;7.408;2022-08-25T14:33:39;35.40;79.40
4356;DHT22;2191;51.482;7.408;2022-08-25T14:36:08;35.40;79.00
4356;DHT22;2191;51.482;7.408;2022-08-25T14:38:36;35.40;78.90
4356;DHT22;2191;51.482;7.408;2022-08-25T14:41:09;35.30;79.20
4356;DHT22;2191;51.482;7.408;2022-08-25T14:43:39;35.10;79.70
4356;DHT22;2191;51.482;7.408;2022-08-25T14:46:09;35.10;79.80
4356;DHT22;2191;51.482;7.408;2022-08-25T14:48:43;35.10;81.80
4356;DHT22;2191;51.482;7.408;2022-08-25T14:51:14;35.30;82.70
4356;DHT22;2191;51.482;7.408;2022-08-25T14:53:43;35.30;79.10
4356;DHT22;2191;51.482;7.408;2022-08-25T14:56:11;35.30;79.30
4356;DHT22;2191;51.482;7.408;2022-08-25T14:58:41;35.20;78.80
4356;DHT22;2191;51.482;7.408;2022-08-25T15:01:22;35.30;79.80
4356;DHT22;2191;51.482;7.408;2022-08-25T15:04:00;35.40;79.30
4356;DHT22;2191;51.482;7.408;2022-08-25T15:06:29;35.40;79.80
4356;DHT22;2191;51.482;7.408;2022-08-25T15:08:58;35.20;81.20
4356;DHT22;2191;51.482;7.408;2022-08-25T15:11:34;35.30;82.10
4356;DHT22;2191;51.482;7.408;2022-08-25T15:14:09;35.30;79.70
4356;DHT22;2191;51.482;7.408;2022-08-25T15:16:40;35.40;80.20
4356;DHT22;2191;51.482;7.408;2022-08-25T15:19:14;35.50;80.80
4356;DHT22;2191;51.482;7.408;2022-08-25T15:21:43;35.30;80.60
4356;DHT22;2191;51.482;7.408;2022-08-25T15:24:13;35.30;80.90
4356;DHT22;2191;51.482;7.408;2022-08-25T15:26:47;35.40;80.80
4356;DHT22;2191;51.482;7.408;2022-08-25T15:29:23;35.40;78.80
4356;DHT22;2191;51.482;7.408;2022-08-25T15:31:53;35.40;79.00
4356;DHT22;2191;51.482;7.408;2022-08-25T15:34:21;35.40;79.30
4356;DHT22;2191;51.482;7.408;2022-08-25T15:36:49;35.40;80.30
4356;DHT22;2191;51.482;7.408;2022-08-25T15:39:18;35.40;80.60
4356;DHT22;2191;51.482;7.408;2022-08-25T15:41:46;35.40;81.10
4356;DHT22;2191;51.482;7.408;2022-08-25T15:44:19;35.40;80.50
4356;DHT22;2191;51.482;7.408;2022-08-25T15:46:56;35.20;78.50
4356;DHT22;2191;51.482;7.408;2022-08-25T15:49:27;35.10;80.30
4356;DHT22;2191;51.482;7.408;2022-08-25T15:51:57;35.00;79.30
4356;DHT22;2191;51.482;7.408;2022-08-25T15:54:26;34.90;78.40
4356;DHT22;2191;51.482;7.408;2022-08-25T15:56:56;34.80;76.90
4356;DHT22;2191;51.482;7.408;2022-08-25T15:59:26;34.70;77.10
4356;DHT22;2191;51.482;7.408;2022-08-25T16:01:55;34.70;78.20
4356;DHT22;2191;51.482;7.408;2022-08-25T16:04:25;34.60;79.60
4356;DHT22;2191;51.482;7.408;2022-08-25T16:06:54;34.60;80.10
4356;DHT22;2191;51.482;7.408;2022-08-25T16:09:24;34.50;80.70
4356;DHT22;2191;51.482;7.408;2022-08-25T16:11:52;34.40;80.80
4356;DHT22;2191;51.482;7.408;2022-08-25T16:14:24;34.40;80.60
4356;DHT22;2191;51.482;7.408;2022-08-25T16:16:56;34.30;80.60
4356;DHT22;2191;51.482;7.408;2022-08-25T16:19:26;34.30;81.70
4356;DHT22;2191;51.482;7.408;2022-08-25T16:21:55;34.30;81.80
4356;DHT22;2191;51.482;7.408;2022-08-25T16:24:23;34.20;81.60
4356;DHT22;2191;51.482;7.408;2022-08-25T16:26:52;34.10;81.80
4356;DHT22;2191;51.482;7.408;2022-08-25T16:29:36;34.00;82.10
4356;DHT22;2191;51.482;7.408;2022-08-25T16:32:07;34.00;82.30
4356;DHT22;2191;51.482;7.408;2022-08-25T16:34:35;33.80;82.50
4356;DHT22;2191;51.482;7.408;2022-08-25T16:37:05;33.70;82.30
4356;DHT22;2191;51.482;7.408;2022-08-25T16:39:35;33.80;82.90
4356;DHT22;2191;51.482;7.408;2022-08-25T16:42:07;33.60;82.60
4356;DHT22;2191;51.482;7.408;2022-08-25T16:44:37;33.50;83.30
4356;DHT22;2191;51.482;7.408;2022-08-25T16:47:07;33.30;83.00
4356;DHT22;2191;51.482;7.408;2022-08-25T16:49:40;33.30;83.70
4356;DHT22;2191;51.482;7.408;2022-08-25T16:52:09;33.30;83.70
4356;DHT22;2191;51.482;7.408;2022-08-25T16:54:54;33.30;83.40
4356;DHT22;2191;51.482;7.408;2022-08-25T16:57:42;33.40;83.50